createdAt,value
2019-05-29T00:01:26.668Z,97616.97
2019-05-29T00:03:55.184Z,97612.37
2019-05-29T00:06:23.701Z,97618.28
2019-05-29T00:08:52.213Z,97615.91
2019-05-29T00:11:20.711Z,97623.64
2019-05-29T00:13:49.228Z,97628.69
2019-05-29T00:16:18.570Z,97632.81
2019-05-29T00:18:47.208Z,97638.36
2019-05-29T00:21:15.727Z,97640.87
2019-05-29T00:23:44.214Z,97635.00
2019-05-29T00:26:12.716Z,97636.57
2019-05-29T00:28:41.207Z,97639.46
2019-05-29T00:31:09.952Z,97640.98
2019-05-29T00:33:38.595Z,97643.88
2019-05-29T00:36:08.237Z,97635.87
2019-05-29T00:38:36.825Z,97643.84
2019-05-29T00:41:06.719Z,97647.73
2019-05-29T00:43:35.379Z,97648.27
2019-05-29T00:46:04.015Z,97655.15
2019-05-29T00:48:32.503Z,97647.61
2019-05-29T00:51:01.019Z,97659.34
2019-05-29T00:53:29.505Z,97656.14
2019-05-29T00:55:58.029Z,97658.08
2019-05-29T00:58:26.510Z,97650.98
2019-05-29T01:00:54.998Z,97663.80
2019-05-29T01:03:23.495Z,97668.12
2019-05-29T01:05:51.979Z,97669.85
2019-05-29T01:08:20.571Z,97667.31
2019-05-29T01:10:49.052Z,97662.46
2019-05-29T01:13:17.693Z,97667.19
2019-05-29T01:15:46.176Z,97665.95
2019-05-29T01:18:15.710Z,97675.67
2019-05-29T01:20:44.234Z,97670.05
2019-05-29T01:23:12.758Z,97672.05
2019-05-29T01:25:41.236Z,97678.67
2019-05-29T01:28:09.733Z,97677.11
2019-05-29T01:30:38.223Z,97683.55
2019-05-29T01:33:06.740Z,97679.14
2019-05-29T01:35:35.227Z,97684.54
2019-05-29T01:38:03.817Z,97685.75
2019-05-29T01:40:32.304Z,97686.81
2019-05-29T01:43:00.815Z,97695.52
2019-05-29T01:45:29.295Z,97699.32
2019-05-29T01:47:57.789Z,97701.35
2019-05-29T01:50:26.286Z,97703.91
2019-05-29T01:52:54.786Z,97708.73
2019-05-29T01:55:23.809Z,97711.73
2019-05-29T01:57:52.468Z,97718.70
2019-05-29T02:00:21.944Z,97714.00
2019-05-29T02:02:50.565Z,97720.13
2019-05-29T02:05:19.968Z,97729.27
2019-05-29T02:07:48.596Z,97724.67
2019-05-29T02:10:18.245Z,97733.17
2019-05-29T02:12:46.887Z,97731.05
2019-05-29T02:15:25.986Z,97740.45
2019-05-29T02:17:46.177Z,97745.71
2019-05-29T02:20:16.865Z,97752.79
2019-05-29T02:22:45.508Z,97750.66
2019-05-29T02:25:16.404Z,97752.39
2019-05-29T02:27:44.458Z,97755.67
2019-05-29T02:30:13.595Z,97762.39
2019-05-29T02:32:42.086Z,97762.56
2019-05-29T02:35:10.738Z,97759.87
2019-05-29T02:37:39.229Z,97765.78
2019-05-29T02:40:08.595Z,97772.36
2019-05-29T02:42:37.430Z,97769.64
2019-05-29T02:45:07.159Z,97775.38
2019-05-29T02:47:35.675Z,97778.05
2019-05-29T02:50:08.295Z,97783.89
2019-05-29T02:52:36.858Z,97795.08
2019-05-29T02:55:07.637Z,97792.95
2019-05-29T02:57:36.121Z,97797.64
2019-05-29T03:00:08.165Z,97805.14
2019-05-29T03:02:36.709Z,97802.43
2019-05-29T03:05:06.643Z,97811.17
2019-05-29T03:07:35.523Z,97817.98
2019-05-29T03:10:06.661Z,97817.83
2019-05-29T03:12:35.279Z,97817.83
2019-05-29T03:15:07.748Z,97830.70
2019-05-29T03:17:36.219Z,97828.86
2019-05-29T03:20:06.876Z,97835.41
2019-05-29T03:22:35.458Z,97842.72
2019-05-29T03:25:05.781Z,97852.20
2019-05-29T03:27:34.258Z,97851.32
2019-05-29T03:30:02.854Z,97862.37
2019-05-29T03:32:37.753Z,97863.20
2019-05-29T03:35:01.585Z,97870.93
2019-05-29T03:37:30.451Z,97874.66
2019-05-29T03:39:59.038Z,97882.87
2019-05-29T03:42:28.317Z,97877.45
2019-05-29T03:44:56.905Z,97890.53
2019-05-29T03:47:26.894Z,97900.33
2019-05-29T03:49:55.629Z,97904.86
2019-05-29T03:52:24.115Z,97911.38
2019-05-29T03:54:52.631Z,97919.20
2019-05-29T03:57:21.122Z,97922.45
2019-05-29T03:59:49.629Z,97929.14
2019-05-29T04:02:18.114Z,97932.00
2019-05-29T04:04:46.632Z,97936.45
2019-05-29T04:07:15.216Z,97936.23
2019-05-29T04:09:43.740Z,97940.26
2019-05-29T04:12:12.260Z,97942.34
2019-05-29T04:14:40.989Z,97943.70
2019-05-29T04:17:10.416Z,97953.67
2019-05-29T04:19:39.038Z,97961.30
2019-05-29T04:22:10.022Z,97963.59
2019-05-29T04:24:40.544Z,97964.73
2019-05-29T04:27:13.505Z,97966.02
2019-05-29T04:29:43.929Z,97970.48
2019-05-29T04:32:12.443Z,97974.66
2019-05-29T04:34:40.959Z,97985.08
2019-05-29T04:37:09.517Z,97982.75
2019-05-29T04:39:39.052Z,97989.59
2019-05-29T04:42:07.799Z,97986.56
2019-05-29T04:44:38.342Z,97994.55
2019-05-29T04:47:11.033Z,97996.28
2019-05-29T04:49:37.941Z,98005.50
2019-05-29T04:52:06.960Z,98004.12
2019-05-29T04:54:35.470Z,98006.77
2019-05-29T04:57:03.938Z,98009.05
2019-05-29T04:59:33.035Z,98014.88
2019-05-29T05:02:01.739Z,98027.36
2019-05-29T05:04:31.009Z,98028.95
2019-05-29T05:06:59.619Z,98036.15
2019-05-29T05:09:29.195Z,98040.29
2019-05-29T05:11:57.934Z,98033.61
2019-05-29T05:14:26.453Z,98033.61
2019-05-29T05:16:55.413Z,98049.21
2019-05-29T05:19:23.922Z,98045.61
2019-05-29T05:21:52.424Z,98046.09
2019-05-29T05:24:20.934Z,98068.28
2019-05-29T05:26:49.430Z,98071.13
2019-05-29T05:29:17.917Z,98072.02
2019-05-29T05:31:46.511Z,98076.09
2019-05-29T05:34:14.990Z,98087.52
2019-05-29T05:36:43.486Z,98083.27
2019-05-29T05:39:11.971Z,98100.51
2019-05-29T05:41:41.085Z,98104.70
2019-05-29T05:44:09.614Z,98110.15
2019-05-29T05:46:39.171Z,98114.85
2019-05-29T05:49:07.804Z,98114.34
2019-05-29T05:51:39.698Z,98116.20
2019-05-29T05:54:06.599Z,98122.61
2019-05-29T05:56:35.855Z,98124.81
2019-05-29T05:59:04.967Z,98126.93
2019-05-29T06:01:33.780Z,98124.59
2019-05-29T06:04:02.462Z,98133.95
2019-05-29T06:06:31.976Z,98130.69
2019-05-29T06:09:00.575Z,98138.82
2019-05-29T06:11:29.084Z,98141.91
2019-05-29T06:13:57.663Z,98141.91
2019-05-29T06:16:26.157Z,98153.03
2019-05-29T06:18:54.640Z,98149.46
2019-05-29T06:21:23.167Z,98149.78
2019-05-29T06:23:51.684Z,98163.59
2019-05-29T06:26:20.170Z,98159.61
2019-05-29T06:28:48.690Z,98166.46
2019-05-29T06:31:17.278Z,98165.89
2019-05-29T06:33:45.799Z,98176.41
2019-05-29T06:36:14.384Z,98175.94
2019-05-29T06:38:44.437Z,98178.94
2019-05-29T06:41:13.295Z,98188.86
2019-05-29T06:43:41.975Z,98186.81
2019-05-29T06:46:10.474Z,98190.43
2019-05-29T06:48:46.394Z,98201.31
2019-05-29T06:51:09.222Z,98202.77
2019-05-29T06:53:37.871Z,98208.80
2019-05-29T06:56:06.411Z,98203.77
2019-05-29T06:58:35.874Z,98206.83
2019-05-29T07:01:04.904Z,98218.76
2019-05-29T07:03:33.663Z,98214.22
2019-05-29T07:06:02.299Z,98219.08
2019-05-29T07:08:38.869Z,98219.17
2019-05-29T07:11:01.080Z,98228.61
2019-05-29T07:13:29.626Z,98230.69
2019-05-29T07:15:58.153Z,98235.26
2019-05-29T07:18:26.671Z,98236.94
2019-05-29T07:20:56.666Z,98237.12
2019-05-29T07:23:25.184Z,98238.98
2019-05-29T07:25:53.739Z,98239.92
2019-05-29T07:28:22.297Z,98243.64
2019-05-29T07:31:00.471Z,98249.31
2019-05-29T07:33:21.102Z,98253.67
2019-05-29T07:35:49.585Z,98248.95
2019-05-29T07:38:18.103Z,98252.41
2019-05-29T07:40:48.216Z,98252.47
2019-05-29T07:43:16.925Z,98248.25
2019-05-29T07:45:46.197Z,98251.16
2019-05-29T07:48:14.807Z,98257.72
2019-05-29T07:50:44.151Z,98260.77
2019-05-29T07:53:12.693Z,98256.61
2019-05-29T07:55:42.492Z,98260.84
2019-05-29T07:58:11.307Z,98260.73
2019-05-29T08:01:03.751Z,98262.43
2019-05-29T08:03:10.044Z,98269.92
2019-05-29T08:05:39.161Z,98272.91
2019-05-29T08:08:07.842Z,98268.17
2019-05-29T08:10:36.391Z,98280.45
2019-05-29T08:13:05.028Z,98284.30
2019-05-29T08:15:33.838Z,98281.67
2019-05-29T08:18:02.425Z,98287.73
2019-05-29T08:20:30.930Z,98292.23
2019-05-29T08:22:59.423Z,98291.91
2019-05-29T08:25:27.948Z,98293.52
2019-05-29T08:27:56.438Z,98294.64
2019-05-29T08:30:25.010Z,98284.66
2019-05-29T08:32:55.787Z,98292.44
2019-05-29T08:35:24.316Z,98298.20
2019-05-29T08:37:52.835Z,98298.66
2019-05-29T08:40:21.554Z,98294.17
2019-05-29T08:42:50.050Z,98309.92
2019-05-29T08:45:19.084Z,98309.57
2019-05-29T08:47:47.789Z,98319.63
2019-05-29T08:50:18.643Z,98322.31
2019-05-29T08:52:47.956Z,98317.32
2019-05-29T08:55:16.993Z,98320.77
2019-05-29T08:57:46.345Z,98318.70
2019-05-29T09:00:16.160Z,98316.42
2019-05-29T09:02:44.789Z,98319.99
2019-05-29T09:05:15.885Z,98325.30
2019-05-29T09:07:45.921Z,98325.05
2019-05-29T09:10:14.894Z,98330.91
2019-05-29T09:12:49.474Z,98333.92
2019-05-29T09:15:20.552Z,98340.91
2019-05-29T09:17:44.298Z,98347.39
2019-05-29T09:20:31.102Z,98347.57
2019-05-29T09:22:43.291Z,98356.65
2019-05-29T09:25:13.629Z,98360.51
2019-05-29T09:27:42.162Z,98364.59
2019-05-29T09:30:10.796Z,98371.33
2019-05-29T09:32:49.989Z,98378.37
2019-05-29T09:35:09.778Z,98374.59
2019-05-29T09:37:38.330Z,98374.44
2019-05-29T09:40:09.860Z,98390.27
2019-05-29T09:42:38.388Z,98403.30
2019-05-29T09:45:07.699Z,98398.06
2019-05-29T09:47:36.212Z,98405.48
2019-05-29T09:50:09.471Z,98406.22
2019-05-29T09:52:37.997Z,98414.49
2019-05-29T09:55:07.014Z,98415.75
2019-05-29T09:57:35.569Z,98421.06
2019-05-29T10:00:10.440Z,98422.16
2019-05-29T10:02:38.995Z,98420.20
2019-05-29T10:05:10.134Z,98424.65
2019-05-29T10:07:39.166Z,98425.45
2019-05-29T10:10:12.637Z,98430.41
2019-05-29T10:12:41.261Z,98430.94
2019-05-29T10:15:11.422Z,98425.87
2019-05-29T10:17:40.048Z,98434.52
2019-05-29T10:20:10.411Z,98435.50
2019-05-29T10:22:38.929Z,98443.02
2019-05-29T10:25:08.360Z,98444.03
2019-05-29T10:27:36.882Z,98439.77
2019-05-29T10:30:09.267Z,98454.92
2019-05-29T10:32:37.846Z,98457.86
2019-05-29T10:35:07.507Z,98455.28
2019-05-29T10:37:36.081Z,98460.18
2019-05-29T10:40:08.152Z,98468.66
2019-05-29T10:42:36.815Z,98470.38
2019-05-29T10:45:09.686Z,98471.70
2019-05-29T10:47:38.242Z,98470.42
2019-05-29T10:50:08.689Z,98475.83
2019-05-29T10:52:37.198Z,98473.99
2019-05-29T10:55:07.771Z,98480.95
2019-05-29T10:57:36.345Z,98478.17
2019-05-29T11:00:09.809Z,98487.63
2019-05-29T11:02:38.307Z,98487.44
2019-05-29T11:05:07.043Z,98494.97
2019-05-29T11:07:35.682Z,98498.56
2019-05-29T11:10:05.519Z,98500.66
2019-05-29T11:12:38.903Z,98496.57
2019-05-29T11:15:20.813Z,98502.03
2019-05-29T11:17:37.139Z,98502.92
2019-05-29T11:20:09.470Z,98502.42
2019-05-29T11:22:37.979Z,98500.06
2019-05-29T11:25:22.119Z,98499.51
2019-05-29T11:27:37.784Z,98500.27
2019-05-29T11:30:08.607Z,98509.49
2019-05-29T11:32:37.141Z,98509.34
2019-05-29T11:35:06.564Z,98510.76
2019-05-29T11:37:35.057Z,98502.38
2019-05-29T11:40:04.015Z,98506.77
2019-05-29T11:42:32.571Z,98506.91
2019-05-29T11:45:01.059Z,98500.13
2019-05-29T11:47:29.652Z,98501.17
2019-05-29T11:50:03.274Z,98497.88
2019-05-29T11:52:39.835Z,98500.56
2019-05-29T11:55:00.110Z,98504.27
2019-05-29T11:57:28.837Z,98514.67
2019-05-29T12:00:00.162Z,98521.25
2019-05-29T12:02:27.564Z,98522.61
2019-05-29T12:05:02.687Z,98520.70
2019-05-29T12:07:29.105Z,98523.48
2019-05-29T12:09:57.607Z,98531.23
2019-05-29T12:12:26.110Z,98526.72
2019-05-29T12:15:06.103Z,98531.48
2019-05-29T12:17:24.839Z,98531.05
2019-05-29T12:19:54.170Z,98532.22
2019-05-29T12:22:22.807Z,98535.20
2019-05-29T12:24:52.515Z,98533.83
2019-05-29T12:27:21.149Z,98534.52
2019-05-29T12:29:49.654Z,98538.39
2019-05-29T12:32:18.160Z,98537.09
2019-05-29T12:34:53.596Z,98539.64
2019-05-29T12:37:16.861Z,98537.14
2019-05-29T12:39:45.378Z,98542.20
2019-05-29T12:42:14.750Z,98540.63
2019-05-29T12:44:43.265Z,98542.52
2019-05-29T12:47:11.767Z,98542.86
2019-05-29T12:49:40.267Z,98549.02
2019-05-29T12:52:09.845Z,98549.73
2019-05-29T12:54:38.785Z,98548.10
2019-05-29T12:57:07.453Z,98555.48
2019-05-29T12:59:37.626Z,98548.58
2019-05-29T13:02:07.398Z,98549.70
2019-05-29T13:05:05.111Z,98548.54
2019-05-29T13:07:06.114Z,98550.16
2019-05-29T13:09:34.645Z,98545.50
2019-05-29T13:12:04.672Z,98558.45
2019-05-29T13:14:33.380Z,98551.25
2019-05-29T13:17:03.061Z,98547.36
2019-05-29T13:19:31.731Z,98555.71
2019-05-29T13:22:01.659Z,98554.88
2019-05-29T13:24:30.313Z,98558.50
2019-05-29T13:26:59.648Z,98561.73
2019-05-29T13:29:28.373Z,98569.17
2019-05-29T13:31:58.069Z,98566.67
2019-05-29T13:34:27.083Z,98562.97
2019-05-29T13:36:59.803Z,98572.81
2019-05-29T13:39:25.887Z,98563.13
2019-05-29T13:41:54.377Z,98575.69
2019-05-29T13:44:22.868Z,98575.30
2019-05-29T13:46:51.381Z,98566.81
2019-05-29T13:49:19.926Z,98577.31
2019-05-29T13:51:48.406Z,98575.45
2019-05-29T13:54:18.190Z,98574.02
2019-05-29T13:56:47.075Z,98574.50
2019-05-29T13:59:16.859Z,98580.17
2019-05-29T14:01:48.303Z,98583.36
2019-05-29T14:04:15.581Z,98590.45
2019-05-29T14:06:44.102Z,98584.41
2019-05-29T14:09:12.584Z,98578.92
2019-05-29T14:11:41.099Z,98585.30
2019-05-29T14:14:12.947Z,98580.98
2019-05-29T14:16:39.861Z,98584.97
2019-05-29T14:19:08.857Z,98590.86
2019-05-29T14:21:37.440Z,98592.48
2019-05-29T14:24:23.441Z,98596.58
2019-05-29T14:26:37.443Z,98592.02
2019-05-29T14:29:06.176Z,98587.19
2019-05-29T14:31:34.725Z,98587.22
2019-05-29T14:34:03.295Z,98593.84
2019-05-29T14:36:31.780Z,98594.00
2019-05-29T14:39:01.555Z,98586.27
2019-05-29T14:41:30.187Z,98592.56
2019-05-29T14:43:58.706Z,98597.49
2019-05-29T14:46:27.196Z,98591.66
2019-05-29T14:48:55.711Z,98596.89
2019-05-29T14:51:24.185Z,98591.81
2019-05-29T14:53:52.787Z,98591.70
2019-05-29T14:56:21.327Z,98587.05
2019-05-29T14:58:49.978Z,98587.00
2019-05-29T15:01:18.461Z,98591.45
2019-05-29T15:03:46.958Z,98585.81
2019-05-29T15:06:15.602Z,98582.84
2019-05-29T15:08:44.095Z,98583.16
2019-05-29T15:11:12.674Z,98587.95
2019-05-29T15:13:41.537Z,98598.05
2019-05-29T15:16:10.881Z,98596.10
2019-05-29T15:18:39.438Z,98591.46
2019-05-29T15:21:08.994Z,98590.69
2019-05-29T15:23:37.612Z,98596.73
2019-05-29T15:26:06.169Z,98604.43
2019-05-29T15:28:34.680Z,98611.22
2019-05-29T15:31:03.183Z,98607.88
2019-05-29T15:33:31.703Z,98602.09
2019-05-29T15:36:00.203Z,98610.24
2019-05-29T15:38:28.962Z,98610.48
2019-05-29T15:40:57.506Z,98614.55
2019-05-29T15:43:25.989Z,98618.52
2019-05-29T15:45:54.701Z,98616.08
2019-05-29T15:48:23.263Z,98616.00
2019-05-29T15:50:51.760Z,98613.40
2019-05-29T15:53:20.333Z,98620.20
2019-05-29T15:55:48.819Z,98614.22
2019-05-29T15:58:18.026Z,98617.81
2019-05-29T16:00:49.437Z,98618.64
2019-05-29T16:03:18.003Z,98623.23
2019-05-29T16:05:46.575Z,98623.58
2019-05-29T16:08:16.071Z,98618.97
2019-05-29T16:10:45.533Z,98624.07
2019-05-29T16:13:14.967Z,98623.87
2019-05-29T16:15:43.584Z,98635.48
2019-05-29T16:18:26.202Z,98639.77
2019-05-29T16:20:42.335Z,98640.75
2019-05-29T16:23:10.980Z,98645.45
2019-05-29T16:25:40.761Z,98647.30
2019-05-29T16:28:09.490Z,98652.45
2019-05-29T16:30:38.007Z,98651.44
2019-05-29T16:33:06.805Z,98653.14
2019-05-29T16:35:37.600Z,98650.06
2019-05-29T16:38:06.334Z,98651.16
2019-05-29T16:40:34.848Z,98648.45
2019-05-29T16:43:03.826Z,98656.23
2019-05-29T16:45:32.397Z,98656.23
2019-05-29T16:48:00.878Z,98665.81
2019-05-29T16:50:29.390Z,98665.48
2019-05-29T16:52:57.881Z,98670.44
2019-05-29T16:55:26.398Z,98668.07
2019-05-29T16:57:54.880Z,98672.16
2019-05-29T17:00:24.040Z,98676.34
2019-05-29T17:02:52.514Z,98666.34
2019-05-29T17:05:22.195Z,98671.95
2019-05-29T17:07:50.733Z,98668.91
2019-05-29T17:10:22.484Z,98668.31
2019-05-29T17:12:51.158Z,98668.59
2019-05-29T17:15:20.770Z,98669.29
2019-05-29T17:17:49.329Z,98675.98
2019-05-29T17:20:20.883Z,98678.95
2019-05-29T17:22:49.458Z,98683.81
2019-05-29T17:25:18.931Z,98688.69
2019-05-29T17:27:47.500Z,98685.95
2019-05-29T17:30:19.039Z,98695.56
2019-05-29T17:32:46.857Z,98699.14
2019-05-29T17:35:17.300Z,98700.06
2019-05-29T17:37:45.872Z,98702.85
2019-05-29T17:40:15.447Z,98703.67
2019-05-29T17:42:43.957Z,98704.27
2019-05-29T17:45:13.818Z,98698.44
2019-05-29T17:47:42.993Z,98703.06
2019-05-29T17:50:11.841Z,98701.70
2019-05-29T17:52:40.420Z,98702.05
2019-05-29T17:55:10.693Z,98705.94
2019-05-29T17:57:39.176Z,98702.74
2019-05-29T18:00:15.880Z,98707.00
2019-05-29T18:02:52.114Z,98714.11
2019-05-29T18:05:18.295Z,98714.92
2019-05-29T18:07:47.074Z,98721.88
2019-05-29T18:10:19.387Z,98715.38
2019-05-29T18:12:46.219Z,98719.31
2019-05-29T18:15:17.124Z,98719.46
2019-05-29T18:17:45.625Z,98714.00
2019-05-29T18:20:15.325Z,98720.95
2019-05-29T18:22:43.942Z,98727.56
2019-05-29T18:25:13.106Z,98735.17
2019-05-29T18:27:41.605Z,98735.17
2019-05-29T18:30:10.834Z,98741.88
2019-05-29T18:32:39.321Z,98745.82
2019-05-29T18:35:08.980Z,98747.25
2019-05-29T18:37:37.616Z,98745.22
2019-05-29T18:40:12.278Z,98746.91
2019-05-29T18:42:38.777Z,98752.53
2019-05-29T18:45:20.316Z,98751.94
2019-05-29T18:47:43.344Z,98758.20
2019-05-29T18:50:12.581Z,98763.17
2019-05-29T18:52:41.077Z,98765.81
2019-05-29T18:55:11.612Z,98764.65
2019-05-29T18:57:40.289Z,98778.78
2019-05-29T19:00:10.594Z,98774.73
2019-05-29T19:02:39.353Z,98786.64
2019-05-29T19:05:08.585Z,98783.88
2019-05-29T19:07:37.083Z,98797.88
2019-05-29T19:10:09.515Z,98798.59
2019-05-29T19:12:38.038Z,98813.61
2019-05-29T19:15:08.101Z,98811.91
2019-05-29T19:17:36.726Z,98822.23
2019-05-29T19:20:06.907Z,98820.44
2019-05-29T19:22:35.452Z,98826.47
2019-05-29T19:25:07.933Z,98825.05
2019-05-29T19:27:41.330Z,98828.87
2019-05-29T19:30:10.946Z,98827.58
2019-05-29T19:32:39.513Z,98825.28
2019-05-29T19:35:09.047Z,98831.16
2019-05-29T19:37:37.648Z,98836.75
2019-05-29T19:40:07.204Z,98835.97
2019-05-29T19:42:35.722Z,98830.15
2019-05-29T19:45:08.600Z,98834.38
2019-05-29T19:47:37.099Z,98825.85
2019-05-29T19:50:11.334Z,98829.50
2019-05-29T19:52:40.253Z,98834.02
2019-05-29T19:55:09.123Z,98833.69
2019-05-29T19:57:52.552Z,98838.44
2019-05-29T20:00:10.046Z,98846.27
2019-05-29T20:02:39.413Z,98842.59
2019-05-29T20:05:08.330Z,98851.55
2019-05-29T20:07:37.518Z,98858.78
2019-05-29T20:10:07.534Z,98857.89
2019-05-29T20:12:36.121Z,98859.78
2019-05-29T20:15:06.626Z,98855.53
2019-05-29T20:17:36.257Z,98858.28
2019-05-29T20:20:08.026Z,98856.59
2019-05-29T20:22:36.999Z,98858.08
2019-05-29T20:25:09.006Z,98852.18
2019-05-29T20:27:36.880Z,98861.85
2019-05-29T20:30:07.323Z,98862.50
2019-05-29T20:32:36.886Z,98863.88
2019-05-29T20:35:06.582Z,98873.35
2019-05-29T20:37:36.288Z,98867.34
2019-05-29T20:40:06.402Z,98871.72
2019-05-29T20:42:34.890Z,98869.05
2019-05-29T20:45:04.378Z,98876.20
2019-05-29T20:47:33.594Z,98882.89
2019-05-29T20:50:02.173Z,98871.81
2019-05-29T20:52:31.052Z,98882.03
2019-05-29T20:54:59.676Z,98883.25
2019-05-29T20:57:28.160Z,98883.95
2019-05-29T20:59:56.683Z,98882.39
2019-05-29T21:02:25.154Z,98883.94
2019-05-29T21:04:53.668Z,98886.27
2019-05-29T21:07:22.148Z,98888.81
2019-05-29T21:09:50.652Z,98886.75
2019-05-29T21:12:19.141Z,98886.75
2019-05-29T21:14:47.656Z,98901.28
2019-05-29T21:17:16.135Z,98899.31
2019-05-29T21:19:44.845Z,98903.52
2019-05-29T21:22:13.545Z,98903.47
2019-05-29T21:24:50.029Z,98904.48
2019-05-29T21:27:12.257Z,98906.42
2019-05-29T21:29:41.269Z,98910.52
2019-05-29T21:32:09.839Z,98906.69
2019-05-29T21:34:38.409Z,98911.58
2019-05-29T21:37:07.019Z,98913.84
2019-05-29T21:39:36.296Z,98919.66
2019-05-29T21:42:05.042Z,98918.77
2019-05-29T21:44:33.560Z,98914.94
2019-05-29T21:47:02.049Z,98923.17
2019-05-29T21:49:31.617Z,98922.89
2019-05-29T21:52:00.322Z,98926.34
2019-05-29T21:54:28.801Z,98927.11
2019-05-29T21:56:57.313Z,98928.85
2019-05-29T21:59:25.890Z,98924.54
2019-05-29T22:01:54.581Z,98925.51
2019-05-29T22:04:23.584Z,98924.64
2019-05-29T22:06:52.165Z,98921.84
2019-05-29T22:09:20.654Z,98922.41
2019-05-29T22:11:50.251Z,98918.84
2019-05-29T22:14:18.873Z,98926.39
2019-05-29T22:16:47.365Z,98921.33
2019-05-29T22:19:15.948Z,98922.28
2019-05-29T22:21:44.433Z,98923.50
2019-05-29T22:24:13.014Z,98924.31
2019-05-29T22:26:41.498Z,98919.30
2019-05-29T22:29:17.842Z,98920.80
2019-05-29T22:31:40.355Z,98924.67
2019-05-29T22:34:08.848Z,98924.96
2019-05-29T22:36:37.328Z,98933.16
2019-05-29T22:39:07.035Z,98923.41
2019-05-29T22:41:35.533Z,98927.88
2019-05-29T22:44:04.982Z,98934.95
2019-05-29T22:46:33.483Z,98935.73
2019-05-29T22:49:02.115Z,98939.14
2019-05-29T22:51:30.551Z,98939.21
2019-05-29T22:53:59.927Z,98945.32
2019-05-29T22:56:28.552Z,98941.39
2019-05-29T22:58:58.052Z,98942.91
2019-05-29T23:01:26.733Z,98943.06
2019-05-29T23:03:56.077Z,98950.01
2019-05-29T23:06:24.704Z,98955.16
2019-05-29T23:08:54.151Z,98955.16
2019-05-29T23:11:22.788Z,98956.23
2019-05-29T23:13:52.230Z,98956.59
2019-05-29T23:16:20.871Z,98956.00
2019-05-29T23:18:49.417Z,98956.48
2019-05-29T23:21:17.932Z,98956.73
2019-05-29T23:23:46.481Z,98966.36
2019-05-29T23:26:15.000Z,98960.54
2019-05-29T23:28:43.487Z,98963.56
2019-05-29T23:31:11.968Z,98964.27
2019-05-29T23:33:40.468Z,98961.77
2019-05-29T23:36:08.943Z,98959.33
2019-05-29T23:38:37.432Z,98959.64
2019-05-29T23:41:06.042Z,98958.36
2019-05-29T23:43:34.595Z,98960.07
2019-05-29T23:46:04.004Z,98960.56
2019-05-29T23:48:32.564Z,98961.82
2019-05-29T23:51:01.718Z,98959.22
2019-05-29T23:53:30.338Z,98960.81
2019-05-29T23:55:59.733Z,98954.55
2019-05-29T23:58:28.307Z,98953.61
